createdAt,value
2019-05-23T00:01:22.368Z,13.13
2019-05-23T00:04:31.048Z,13.12
2019-05-23T00:07:31.237Z,13.11
2019-05-23T00:10:37.139Z,13.17
2019-05-23T00:13:15.862Z,13.13
2019-05-23T00:15:51.034Z,13.09
2019-05-23T00:18:24.607Z,13.10
2019-05-23T00:20:59.041Z,13.23
2019-05-23T00:23:32.421Z,13.12
2019-05-23T00:26:05.199Z,13.21
2019-05-23T00:28:39.250Z,13.18
2019-05-23T00:31:21.469Z,13.23
2019-05-23T00:33:53.504Z,13.19
2019-05-23T00:36:26.329Z,13.28
2019-05-23T00:38:58.614Z,13.29
2019-05-23T00:41:32.587Z,13.18
2019-05-23T00:44:05.615Z,13.12
2019-05-23T00:46:38.223Z,13.15
2019-05-23T00:49:09.968Z,13.07
2019-05-23T00:51:43.878Z,13.12
2019-05-23T00:54:17.243Z,13.12
2019-05-23T00:56:50.138Z,13.20
2019-05-23T00:59:27.185Z,13.19
2019-05-23T01:01:57.715Z,13.05
2019-05-23T01:04:32.375Z,13.17
2019-05-23T01:07:07.077Z,13.21
2019-05-23T01:09:39.599Z,13.16
2019-05-23T01:12:12.902Z,13.12
2019-05-23T01:14:44.788Z,13.10
2019-05-23T01:17:18.976Z,13.11
2019-05-23T01:19:52.249Z,13.09
2019-05-23T01:22:24.091Z,13.20
2019-05-23T01:24:56.518Z,13.10
2019-05-23T01:27:28.481Z,13.08
2019-05-23T01:30:00.506Z,12.99
2019-05-23T01:32:44.134Z,12.96
2019-05-23T01:35:18.156Z,12.94
2019-05-23T01:37:51.478Z,12.93
2019-05-23T01:40:24.948Z,12.87
2019-05-23T01:42:58.825Z,12.80
2019-05-23T01:45:30.891Z,12.80
2019-05-23T01:48:02.329Z,12.77
2019-05-23T01:50:34.470Z,12.76
2019-05-23T01:53:07.530Z,12.81
2019-05-23T01:55:39.844Z,12.79
2019-05-23T01:58:12.135Z,12.79
2019-05-23T02:00:45.575Z,12.78
2019-05-23T02:03:16.995Z,12.78
2019-05-23T02:05:48.417Z,12.83
2019-05-23T02:08:20.040Z,12.75
2019-05-23T02:10:52.571Z,12.72
2019-05-23T02:13:24.060Z,12.70
2019-05-23T02:15:57.535Z,12.72
2019-05-23T02:18:29.631Z,12.72
2019-05-23T02:21:01.222Z,12.69
2019-05-23T02:23:34.609Z,12.70
2019-05-23T02:26:07.712Z,12.65
2019-05-23T02:28:40.130Z,12.64
2019-05-23T02:31:12.648Z,12.64
2019-05-23T02:33:45.469Z,12.67
2019-05-23T02:36:17.943Z,12.61
2019-05-23T02:38:53.354Z,12.62
2019-05-23T02:41:33.266Z,12.63
2019-05-23T02:44:06.491Z,12.66
2019-05-23T02:46:42.453Z,12.58
2019-05-23T02:49:16.374Z,12.60
2019-05-23T02:51:48.994Z,12.57
2019-05-23T03:13:12.850Z,12.58
2019-05-23T03:16:00.797Z,12.55
2019-05-23T03:18:43.622Z,12.54
2019-05-23T03:21:22.559Z,12.60
2019-05-23T03:23:59.172Z,12.57
2019-05-23T03:26:37.522Z,12.56
2019-05-23T03:29:11.324Z,12.60
2019-05-23T03:31:48.322Z,12.60
2019-05-23T03:34:21.909Z,12.59
2019-05-23T03:36:54.044Z,12.59
2019-05-23T03:39:26.570Z,12.64
2019-05-23T03:41:58.255Z,12.63
2019-05-23T03:48:03.980Z,12.60
2019-05-23T03:50:36.868Z,12.53
2019-05-23T03:53:11.121Z,12.54
2019-05-23T03:55:43.123Z,12.58
2019-05-23T03:58:15.124Z,12.50
2019-05-23T04:00:58.417Z,12.47
2019-05-23T04:03:30.595Z,12.62
2019-05-23T04:06:03.720Z,12.68
2019-05-23T04:08:34.907Z,12.75
2019-05-23T04:11:08.482Z,12.87
2019-05-23T04:13:41.350Z,12.81
2019-05-23T04:16:13.201Z,12.65
2019-05-23T04:18:45.168Z,12.60
2019-05-23T04:21:18.456Z,12.63
2019-05-23T04:23:49.754Z,12.71
2019-05-23T04:26:23.054Z,12.68
2019-05-23T04:28:55.624Z,12.66
2019-05-23T04:31:30.728Z,12.56
2019-05-23T04:34:02.843Z,12.58
2019-05-23T04:36:36.074Z,12.65
2019-05-23T04:39:11.421Z,12.78
2019-05-23T04:41:44.986Z,12.79
2019-05-23T04:44:18.358Z,12.84
2019-05-23T04:46:50.483Z,12.94
2019-05-23T04:49:23.310Z,12.98
2019-05-23T04:51:55.397Z,13.05
2019-05-23T04:54:27.715Z,13.35
2019-05-23T04:57:01.657Z,13.55
2019-05-23T04:59:33.005Z,13.70
2019-05-23T05:02:05.625Z,13.96
2019-05-23T05:04:37.636Z,14.22
2019-05-23T05:07:09.609Z,14.29
2019-05-23T05:09:41.591Z,14.80
2019-05-23T05:12:13.345Z,14.92
2019-05-23T05:14:45.424Z,15.02
2019-05-23T05:17:18.570Z,15.42
2019-05-23T05:19:50.334Z,16.06
2019-05-23T05:22:22.793Z,16.77
2019-05-23T05:24:54.293Z,16.16
2019-05-23T05:27:26.755Z,16.44
2019-05-23T05:29:58.953Z,16.81
2019-05-23T05:32:44.005Z,16.18
2019-05-23T05:35:06.057Z,14.55
2019-05-23T05:37:37.753Z,14.16
2019-05-23T05:40:10.893Z,14.44
2019-05-23T05:42:44.138Z,14.44
2019-05-23T05:45:16.590Z,15.05
2019-05-23T05:47:49.184Z,15.69
2019-05-23T05:50:23.657Z,15.57
2019-05-23T05:52:55.633Z,15.69
2019-05-23T05:55:29.377Z,15.76
2019-05-23T05:58:00.744Z,15.48
2019-05-23T06:00:48.163Z,15.34
2019-05-23T06:03:23.919Z,15.09
2019-05-23T06:05:55.579Z,15.29
2019-05-23T06:08:38.907Z,15.51
2019-05-23T06:11:13.232Z,15.35
2019-05-23T06:13:45.265Z,15.73
2019-05-23T06:16:16.815Z,15.89
2019-05-23T06:18:49.686Z,16.02
2019-05-23T06:21:26.190Z,15.67
2019-05-23T06:23:58.306Z,15.67
2019-05-23T06:26:30.417Z,15.91
2019-05-23T06:29:02.326Z,15.93
2019-05-23T06:31:36.635Z,16.69
2019-05-23T06:34:09.067Z,16.69
2019-05-23T06:36:41.225Z,17.91
2019-05-23T06:39:13.831Z,18.36
2019-05-23T06:41:46.787Z,19.24
2019-05-23T06:44:20.396Z,19.95
2019-05-23T06:46:54.416Z,20.63
2019-05-23T06:49:27.366Z,22.56
2019-05-23T06:52:00.367Z,23.85
2019-05-23T06:54:35.602Z,22.40
2019-05-23T06:57:08.101Z,22.34
2019-05-23T06:59:40.903Z,21.92
2019-05-23T07:02:14.060Z,22.63
2019-05-23T07:04:47.258Z,21.45
2019-05-23T07:07:21.745Z,21.40
2019-05-23T07:09:53.506Z,20.46
2019-05-23T07:12:28.908Z,20.86
2019-05-23T07:15:01.273Z,21.42
2019-05-23T07:17:33.614Z,21.49
2019-05-23T07:20:10.343Z,22.38
2019-05-23T07:22:42.545Z,22.60
2019-05-23T07:25:14.869Z,21.89
2019-05-23T07:27:46.372Z,21.48
2019-05-23T07:30:27.195Z,20.83
2019-05-23T07:32:59.336Z,21.02
2019-05-23T07:35:31.719Z,21.90
2019-05-23T07:38:03.620Z,23.79
2019-05-23T07:40:37.541Z,24.83
2019-05-23T07:43:10.122Z,23.52
2019-05-23T07:45:54.973Z,23.41
2019-05-23T07:48:28.257Z,22.78
2019-05-23T07:51:01.010Z,22.90
2019-05-23T07:53:38.429Z,23.67
2019-05-23T07:56:16.276Z,23.76
2019-05-23T07:58:48.462Z,23.44
2019-05-23T08:01:24.673Z,23.38
2019-05-23T08:03:57.232Z,23.83
2019-05-23T08:06:28.986Z,24.89
2019-05-23T08:09:01.381Z,23.54
2019-05-23T08:11:34.142Z,23.47
2019-05-23T08:14:12.055Z,23.45
2019-05-23T08:16:43.632Z,24.10
2019-05-23T08:19:19.375Z,24.42
2019-05-23T08:21:48.918Z,24.84
2019-05-23T08:24:22.242Z,24.88
2019-05-23T08:26:55.880Z,24.14
2019-05-23T08:29:28.379Z,23.00
2019-05-23T08:32:01.550Z,23.54
2019-05-23T08:34:41.673Z,22.63
2019-05-23T08:37:08.808Z,23.18
2019-05-23T08:39:41.047Z,23.48
2019-05-23T08:42:13.004Z,23.55
2019-05-23T08:44:44.908Z,24.08
2019-05-23T08:47:17.715Z,25.00
2019-05-23T08:49:48.934Z,25.38
2019-05-23T08:52:20.483Z,25.88
2019-05-23T08:54:56.672Z,26.44
2019-05-23T08:57:30.869Z,26.84
2019-05-23T09:00:10.676Z,26.32
2019-05-23T09:02:44.364Z,26.72
2019-05-23T09:05:17.334Z,27.52
2019-05-23T09:07:49.417Z,27.95
2019-05-23T09:10:22.451Z,28.40
2019-05-23T09:12:56.754Z,27.09
2019-05-23T09:15:31.635Z,27.46
2019-05-23T09:18:08.705Z,27.32
2019-05-23T09:20:41.627Z,26.28
2019-05-23T09:23:14.832Z,26.28
2019-05-23T09:25:47.097Z,26.66
2019-05-23T09:28:19.032Z,25.05
2019-05-23T09:30:50.920Z,25.34
2019-05-23T09:33:22.399Z,25.81
2019-05-23T09:35:54.606Z,26.68
2019-05-23T09:38:27.283Z,27.36
2019-05-23T09:40:59.467Z,28.01
2019-05-23T09:43:31.818Z,27.63
2019-05-23T09:46:04.015Z,28.25
2019-05-23T09:48:36.212Z,28.56
2019-05-23T09:51:11.202Z,29.14
2019-05-23T09:53:47.371Z,29.57
2019-05-23T09:56:20.091Z,29.93
2019-05-23T09:58:52.798Z,29.82
2019-05-23T10:01:25.399Z,30.17
2019-05-23T10:03:59.296Z,27.32
2019-05-23T10:06:32.532Z,27.22
2019-05-23T10:09:08.176Z,26.52
2019-05-23T10:11:42.492Z,26.88
2019-05-23T10:14:19.180Z,28.49
2019-05-23T10:16:52.057Z,29.00
2019-05-23T10:19:24.132Z,27.76
2019-05-23T10:21:56.540Z,26.23
2019-05-23T10:24:28.593Z,22.58
2019-05-23T10:27:00.299Z,21.94
2019-05-23T10:29:32.390Z,21.43
2019-05-23T10:32:05.989Z,21.00
2019-05-23T10:34:39.904Z,20.49
2019-05-23T10:37:13.104Z,20.66
2019-05-23T10:39:48.984Z,21.41
2019-05-23T10:42:20.714Z,22.03
2019-05-23T10:44:52.355Z,22.01
2019-05-23T10:47:24.527Z,22.33
2019-05-23T10:49:56.710Z,23.63
2019-05-23T10:52:30.939Z,24.51
2019-05-23T10:55:02.477Z,24.40
2019-05-23T10:57:34.410Z,24.18
2019-05-23T11:00:15.731Z,24.28
2019-05-23T11:02:47.414Z,23.74
2019-05-23T11:05:19.013Z,21.82
2019-05-23T11:07:50.614Z,21.86
2019-05-23T11:10:23.054Z,24.09
2019-05-23T11:12:54.690Z,23.46
2019-05-23T11:15:28.281Z,24.00
2019-05-23T11:17:59.687Z,25.37
2019-05-23T11:20:31.870Z,24.87
2019-05-23T11:23:05.877Z,25.75
2019-05-23T11:25:39.835Z,25.73
2019-05-23T11:28:16.220Z,25.34
2019-05-23T11:30:50.826Z,24.84
2019-05-23T11:33:23.042Z,23.80
2019-05-23T11:35:55.264Z,22.49
2019-05-23T11:38:38.508Z,22.62
2019-05-23T11:41:19.860Z,23.48
2019-05-23T11:43:59.564Z,24.22
2019-05-23T11:46:35.275Z,24.43
2019-05-23T11:49:07.765Z,23.64
2019-05-23T11:51:39.928Z,24.84
2019-05-23T11:54:14.348Z,26.05
2019-05-23T11:56:46.583Z,26.95
2019-05-23T11:59:18.031Z,26.12
2019-05-23T12:01:51.784Z,23.13
2019-05-23T12:04:25.221Z,23.08
2019-05-23T12:06:59.704Z,21.82
2019-05-23T12:09:31.157Z,20.92
2019-05-23T12:12:05.232Z,20.78
2019-05-23T12:14:38.490Z,20.43
2019-05-23T12:17:13.258Z,20.09
2019-05-23T12:19:59.888Z,20.27
2019-05-23T12:25:22.733Z,19.99
2019-05-23T12:33:34.325Z,18.09
2019-05-23T12:39:37.744Z,18.01
2019-05-23T12:42:43.721Z,17.98
2019-05-23T12:45:16.965Z,17.79
2019-05-23T12:47:50.162Z,17.83
2019-05-23T12:50:30.203Z,17.97
2019-05-23T12:53:01.792Z,17.88
2019-05-23T12:55:33.870Z,17.75
2019-05-23T12:58:13.803Z,17.72
2019-05-23T13:00:50.506Z,17.87
2019-05-23T13:03:23.330Z,18.05
2019-05-23T13:05:54.793Z,18.43
2019-05-23T13:08:28.014Z,19.09
2019-05-23T13:11:00.913Z,19.37
2019-05-23T13:13:32.259Z,19.22
2019-05-23T13:16:03.742Z,19.37
2019-05-23T13:18:35.020Z,19.73
2019-05-23T13:21:06.578Z,19.59
2019-05-23T13:23:39.299Z,19.70
2019-05-23T13:26:12.327Z,20.17
2019-05-23T13:28:43.842Z,20.10
2019-05-23T13:31:17.518Z,20.18
2019-05-23T13:33:48.779Z,20.23
2019-05-23T13:36:22.009Z,20.41
2019-05-23T13:38:53.663Z,20.72
2019-05-23T13:41:25.728Z,21.02
2019-05-23T13:43:57.898Z,20.98
2019-05-23T13:46:29.265Z,20.48
2019-05-23T13:49:02.185Z,20.26
2019-05-23T13:51:33.682Z,20.19
2019-05-23T13:54:05.392Z,20.15
2019-05-23T13:56:37.902Z,19.90
2019-05-23T13:59:09.154Z,19.39
2019-05-23T14:01:40.830Z,18.96
2019-05-23T14:04:12.619Z,18.34
2019-05-23T14:10:17.056Z,17.87
2019-05-23T14:12:49.029Z,17.66
2019-05-23T14:15:21.895Z,17.34
2019-05-23T14:17:53.669Z,16.72
2019-05-23T14:20:25.789Z,16.44
2019-05-23T14:23:02.838Z,16.43
2019-05-23T14:25:34.240Z,16.66
2019-05-23T14:28:12.465Z,16.74
2019-05-23T14:30:45.483Z,16.88
2019-05-23T14:36:24.231Z,16.94
2019-05-23T14:38:57.282Z,16.78
2019-05-23T14:41:44.272Z,16.64
2019-05-23T14:44:04.325Z,17.01
2019-05-23T14:46:39.863Z,17.28
2019-05-23T14:49:13.003Z,17.42
2019-05-23T14:51:45.987Z,17.62
2019-05-23T14:54:33.542Z,17.41
2019-05-23T14:57:07.067Z,17.49
2019-05-23T14:59:39.054Z,17.49
2019-05-23T15:02:12.004Z,17.41
2019-05-23T15:04:43.281Z,17.27
2019-05-23T15:07:14.796Z,17.16
2019-05-23T15:09:48.113Z,17.21
2019-05-23T15:12:19.877Z,17.34
2019-05-23T15:14:51.285Z,17.43
2019-05-23T15:17:22.664Z,17.57
2019-05-23T15:19:53.952Z,17.56
2019-05-23T15:22:25.495Z,17.63
2019-05-23T15:24:56.704Z,17.45
2019-05-23T15:27:28.093Z,17.36
2019-05-23T15:29:59.348Z,17.47
2019-05-23T15:32:30.614Z,17.51
2019-05-23T15:35:02.054Z,17.56
2019-05-23T15:37:34.151Z,17.94
2019-05-23T15:40:40.347Z,18.12
2019-05-23T15:43:19.104Z,18.05
2019-05-23T15:45:51.010Z,17.92
2019-05-23T15:48:23.130Z,18.00
2019-05-23T15:50:54.683Z,18.17
2019-05-23T15:53:28.360Z,18.05
2019-05-23T15:56:26.835Z,17.84
2019-05-23T15:59:00.541Z,17.70
2019-05-23T16:01:33.776Z,17.53
2019-05-23T16:04:16.245Z,17.59
2019-05-23T16:06:47.875Z,17.53
2019-05-23T16:09:29.264Z,17.52
2019-05-23T16:11:55.029Z,17.53
2019-05-23T16:14:26.993Z,17.80
2019-05-23T16:16:58.844Z,17.85
2019-05-23T16:19:30.494Z,17.80
2019-05-23T16:22:01.929Z,17.82
2019-05-23T16:24:34.056Z,17.95
2019-05-23T16:27:06.672Z,18.05
2019-05-23T16:29:38.620Z,17.92
2019-05-23T16:32:10.055Z,17.45
2019-05-23T16:34:41.493Z,17.39
2019-05-23T16:37:12.934Z,17.32
2019-05-23T16:39:48.280Z,17.29
2019-05-23T16:42:18.651Z,17.27
2019-05-23T16:45:38.616Z,17.28
2019-05-23T16:48:18.162Z,17.35
2019-05-23T16:50:49.676Z,17.23
2019-05-23T16:53:22.048Z,17.10
2019-05-23T16:56:08.773Z,16.97
2019-05-23T16:59:02.974Z,16.95
2019-05-23T17:01:36.919Z,16.92
2019-05-23T17:04:10.627Z,17.04
2019-05-23T17:06:48.243Z,16.93
2019-05-23T17:09:19.367Z,16.84
2019-05-23T17:12:08.794Z,16.92
2019-05-23T17:14:44.920Z,17.08
2019-05-23T17:17:57.117Z,17.27
2019-05-23T17:22:03.023Z,17.28
2019-05-23T17:23:12.565Z,17.32
2019-05-23T17:25:59.199Z,17.28
2019-05-23T17:28:50.650Z,17.04
2019-05-23T17:31:28.977Z,16.98
2019-05-23T17:36:53.008Z,17.16
2019-05-23T17:39:31.977Z,17.05
2019-05-23T17:47:56.309Z,16.93
2019-05-23T17:50:34.365Z,16.88
2019-05-23T17:53:04.958Z,16.74
2019-05-23T17:55:38.172Z,16.65
2019-05-23T17:58:10.491Z,16.64
2019-05-23T18:00:43.849Z,16.70
2019-05-23T18:03:18.235Z,16.74
2019-05-23T18:05:51.207Z,16.70
2019-05-23T18:08:23.766Z,16.56
2019-05-23T18:10:57.265Z,16.50
2019-05-23T18:13:29.639Z,16.41
2019-05-23T18:16:03.019Z,16.36
2019-05-23T18:18:34.909Z,16.33
2019-05-23T18:21:08.846Z,16.25
2019-05-23T18:23:41.568Z,16.22
2019-05-23T18:26:19.468Z,16.20
2019-05-23T18:28:51.927Z,16.30
2019-05-23T18:31:29.117Z,16.32
2019-05-23T18:34:02.504Z,16.39
2019-05-23T18:36:37.314Z,16.42
2019-05-23T18:39:12.668Z,16.29
2019-05-23T18:41:45.902Z,16.36
2019-05-23T18:44:20.439Z,16.27
2019-05-23T18:46:54.411Z,16.26
2019-05-23T18:49:30.537Z,16.17
2019-05-23T18:52:03.526Z,16.08
2019-05-23T18:54:39.392Z,16.03
2019-05-23T18:57:12.809Z,15.93
2019-05-23T18:59:44.613Z,15.88
2019-05-23T19:02:17.106Z,15.91
2019-05-23T19:04:49.275Z,15.72
2019-05-23T19:07:21.495Z,15.64
2019-05-23T19:09:55.103Z,15.58
2019-05-23T19:12:28.852Z,15.55
2019-05-23T19:15:03.784Z,15.41
2019-05-23T19:17:37.376Z,15.30
2019-05-23T19:20:12.347Z,15.18
2019-05-23T19:22:48.774Z,15.09
2019-05-23T19:25:23.484Z,14.96
2019-05-23T19:27:56.710Z,14.87
2019-05-23T19:30:29.521Z,14.80
2019-05-23T19:33:02.841Z,14.81
2019-05-23T19:35:37.443Z,14.78
2019-05-23T19:38:11.424Z,14.78
2019-05-23T19:40:46.294Z,14.77
2019-05-23T19:43:21.036Z,14.73
2019-05-23T19:45:55.337Z,14.70
2019-05-23T19:48:28.775Z,14.68
2019-05-23T19:51:02.566Z,14.67
2019-05-23T19:53:37.156Z,14.70
2019-05-23T19:56:10.853Z,14.69
2019-05-23T19:58:44.170Z,14.64
2019-05-23T20:01:16.598Z,14.61
2019-05-23T20:03:49.772Z,14.56
2019-05-23T20:06:22.039Z,14.57
2019-05-23T20:08:56.241Z,14.57
2019-05-23T20:11:30.206Z,14.56
2019-05-23T20:14:03.501Z,14.62
2019-05-23T20:16:36.689Z,14.58
2019-05-23T20:19:09.452Z,14.65
2019-05-23T20:21:43.146Z,14.72
2019-05-23T20:24:14.750Z,14.73
2019-05-23T20:26:47.052Z,14.73
2019-05-23T20:29:18.478Z,14.62
2019-05-23T20:31:56.607Z,14.52
2019-05-23T20:34:48.116Z,14.40
2019-05-23T20:37:52.729Z,14.44
2019-05-23T20:40:53.037Z,14.35
2019-05-23T20:43:28.771Z,14.34
2019-05-23T20:46:00.285Z,14.32
2019-05-23T20:48:36.600Z,14.24
2019-05-23T20:51:27.833Z,14.18
2019-05-23T20:54:05.153Z,14.12
2019-05-23T20:56:45.497Z,14.12
2019-05-23T20:59:23.467Z,14.13
2019-05-23T21:02:22.639Z,14.16
2019-05-23T21:05:12.626Z,14.10
2019-05-23T21:08:10.985Z,14.02
2019-05-23T21:10:56.835Z,13.97
2019-05-23T21:13:42.123Z,13.92
2019-05-23T21:16:26.560Z,13.91
2019-05-23T21:19:03.082Z,13.88
2019-05-23T21:21:39.796Z,13.88
2019-05-23T21:24:40.216Z,13.88
2019-05-23T21:27:23.090Z,13.84
2019-05-23T21:30:11.312Z,13.90
2019-05-23T21:32:52.354Z,13.89
2019-05-23T21:35:34.033Z,13.90
2019-05-23T21:38:25.450Z,13.90
2019-05-23T21:41:04.180Z,13.90
2019-05-23T21:43:36.631Z,13.97
2019-05-23T21:46:09.282Z,13.97
2019-05-23T21:48:41.525Z,13.99
2019-05-23T21:51:17.303Z,13.96
2019-05-23T21:53:48.995Z,13.94
2019-05-23T21:56:28.844Z,13.95
2019-05-23T21:59:01.123Z,13.95
2019-05-23T22:01:44.317Z,13.91
2019-05-23T22:04:28.047Z,13.91
2019-05-23T22:07:04.048Z,13.87
2019-05-23T22:09:36.485Z,13.73
2019-05-23T22:12:10.209Z,13.69
2019-05-23T22:14:43.621Z,13.57
2019-05-23T22:17:18.521Z,13.51
2019-05-23T22:19:51.300Z,13.48
2019-05-23T22:22:24.803Z,13.47
2019-05-23T22:24:59.437Z,13.45
2019-05-23T22:27:50.061Z,13.48
2019-05-23T22:30:36.222Z,13.48
2019-05-23T22:33:10.621Z,13.56
2019-05-23T22:35:43.017Z,13.56
2019-05-23T22:38:15.152Z,13.48
2019-05-23T22:40:54.412Z,13.47
2019-05-23T22:43:31.728Z,13.45
2019-05-23T22:46:02.232Z,13.49
2019-05-23T22:48:37.470Z,13.53
2019-05-23T22:51:21.526Z,13.60
2019-05-23T22:53:59.848Z,13.60
2019-05-23T22:56:44.997Z,13.58
2019-05-23T22:59:26.517Z,13.52
2019-05-23T23:02:00.258Z,13.52
2019-05-23T23:04:32.711Z,13.48
2019-05-23T23:07:04.737Z,13.47
2019-05-23T23:09:36.862Z,13.53
2019-05-23T23:12:10.703Z,13.60
2019-05-23T23:14:43.050Z,13.55
2019-05-23T23:17:15.477Z,13.58
2019-05-23T23:19:47.610Z,13.53
2019-05-23T23:22:21.332Z,13.51
2019-05-23T23:24:57.611Z,13.44
2019-05-23T23:27:34.378Z,13.44
2019-05-23T23:30:13.612Z,13.58
2019-05-23T23:32:49.257Z,13.64
2019-05-23T23:35:21.126Z,13.60
2019-05-23T23:37:53.022Z,13.42
2019-05-23T23:40:26.243Z,13.31
2019-05-23T23:43:00.076Z,13.32
2019-05-23T23:45:50.836Z,13.24
2019-05-23T23:48:40.792Z,13.05
2019-05-23T23:51:30.031Z,13.04
2019-05-23T23:54:19.098Z,12.80
2019-05-23T23:57:09.514Z,12.72
2019-05-23T23:59:40.379Z,12.76
